createdAt,value
2018-07-19T00:01:15.440Z,3.50
2018-07-19T00:03:43.958Z,3.00
2018-07-19T00:06:12.448Z,2.90
2018-07-19T00:08:40.961Z,3.30
2018-07-19T00:11:09.511Z,3.13
2018-07-19T00:13:38.012Z,2.87
2018-07-19T00:16:06.470Z,3.40
2018-07-19T00:18:34.953Z,3.47
2018-07-19T00:21:03.462Z,2.90
2018-07-19T00:23:31.934Z,3.10
2018-07-19T00:26:00.453Z,2.90
2018-07-19T00:28:28.935Z,3.17
2018-07-19T00:30:57.410Z,3.17
2018-07-19T00:33:25.893Z,2.83
2018-07-19T00:35:54.354Z,2.90
2018-07-19T00:38:22.846Z,2.60
2018-07-19T00:40:51.317Z,3.20
2018-07-19T00:43:19.449Z,3.17
2018-07-19T00:45:47.934Z,3.37
2018-07-19T00:48:17.469Z,3.00
2018-07-19T00:50:45.941Z,3.23
2018-07-19T00:53:14.424Z,2.73
2018-07-19T00:55:42.893Z,3.00
2018-07-19T00:58:11.381Z,3.10
2018-07-19T01:00:39.889Z,3.13
2018-07-19T01:03:08.387Z,2.80
2018-07-19T01:05:36.848Z,3.03
2018-07-19T01:08:05.514Z,3.37
2018-07-19T01:10:34.078Z,3.40
2018-07-19T01:13:02.543Z,3.07
2018-07-19T01:15:31.077Z,3.17
2018-07-19T01:18:00.227Z,2.80
2018-07-19T01:20:28.705Z,3.20
2018-07-19T01:22:57.218Z,3.47
2018-07-19T01:25:25.730Z,2.80
2018-07-19T01:27:54.229Z,3.10
2018-07-19T01:30:22.731Z,3.10
2018-07-19T01:32:51.281Z,2.33
2018-07-19T01:35:19.474Z,2.67
2018-07-19T01:37:47.997Z,3.20
2018-07-19T01:40:16.498Z,2.90
2018-07-19T01:42:45.641Z,2.80
2018-07-19T01:45:14.633Z,2.83
2018-07-19T01:47:43.117Z,2.87
2018-07-19T01:50:12.083Z,2.60
2018-07-19T01:52:40.658Z,3.00
2018-07-19T01:55:09.578Z,2.97
2018-07-19T01:57:38.136Z,3.17
2018-07-19T02:00:07.173Z,3.10
2018-07-19T02:02:35.658Z,3.13
2018-07-19T02:05:04.318Z,3.10
2018-07-19T02:07:32.847Z,3.20
2018-07-19T02:10:01.329Z,2.90
2018-07-19T02:12:29.805Z,3.13
2018-07-19T02:14:58.532Z,3.00
2018-07-19T02:17:26.972Z,3.10
2018-07-19T02:19:55.806Z,3.60
2018-07-19T02:22:25.278Z,3.30
2018-07-19T02:24:53.770Z,3.00
2018-07-19T02:27:22.271Z,3.43
2018-07-19T02:29:51.805Z,3.23
2018-07-19T02:32:20.281Z,3.40
2018-07-19T02:34:48.761Z,2.77
2018-07-19T02:37:17.326Z,3.10
2018-07-19T02:39:46.021Z,3.20
2018-07-19T02:42:14.515Z,3.10
2018-07-19T02:44:42.645Z,3.33
2018-07-19T02:47:11.527Z,3.00
2018-07-19T02:49:40.330Z,3.13
2018-07-19T02:52:08.854Z,3.37
2018-07-19T02:54:37.412Z,3.57
2018-07-19T02:57:05.987Z,3.17
2018-07-19T02:59:34.595Z,3.17
2018-07-19T03:02:03.121Z,3.40
2018-07-19T03:04:31.799Z,3.60
2018-07-19T03:07:00.521Z,3.30
2018-07-19T03:09:28.973Z,3.60
2018-07-19T03:11:57.448Z,3.20
2018-07-19T03:14:25.917Z,3.53
2018-07-19T03:16:54.377Z,2.90
2018-07-19T03:19:22.882Z,3.40
2018-07-19T03:21:51.342Z,3.10
2018-07-19T03:24:19.809Z,3.73
2018-07-19T03:26:48.301Z,3.50
2018-07-19T03:29:16.765Z,3.23
2018-07-19T03:31:45.217Z,3.80
2018-07-19T03:34:13.933Z,3.70
2018-07-19T03:36:42.412Z,3.30
2018-07-19T03:39:11.577Z,3.50
2018-07-19T03:41:40.138Z,3.53
2018-07-19T03:44:08.850Z,3.27
2018-07-19T03:46:37.338Z,3.47
2018-07-19T03:49:05.906Z,3.40
2018-07-19T03:51:34.385Z,3.67
2018-07-19T03:54:02.896Z,3.57
2018-07-19T03:56:31.334Z,3.00
2018-07-19T03:58:59.497Z,3.60
2018-07-19T04:01:27.999Z,3.30
2018-07-19T04:03:56.553Z,3.87
2018-07-19T04:06:25.038Z,3.57
2018-07-19T04:08:53.523Z,3.70
2018-07-19T04:11:22.549Z,3.90
2018-07-19T04:13:51.041Z,3.40
2018-07-19T04:16:19.490Z,3.93
2018-07-19T04:18:47.981Z,3.70
2018-07-19T04:21:16.168Z,3.60
2018-07-19T04:23:44.909Z,4.00
2018-07-19T04:26:14.405Z,3.33
2018-07-19T04:28:42.945Z,4.00
2018-07-19T04:31:11.413Z,3.30
2018-07-19T04:33:39.649Z,4.17
2018-07-19T04:36:08.521Z,4.27
2018-07-19T04:38:37.017Z,3.70
2018-07-19T04:41:05.569Z,3.47
2018-07-19T04:43:34.017Z,3.50
2018-07-19T04:46:02.633Z,3.97
2018-07-19T04:48:31.182Z,4.10
2018-07-19T04:50:59.716Z,4.27
2018-07-19T04:53:28.212Z,3.77
2018-07-19T04:55:56.697Z,4.20
2018-07-19T04:58:25.213Z,3.70
2018-07-19T05:00:53.723Z,4.27
2018-07-19T05:03:22.235Z,4.30
2018-07-19T05:05:51.001Z,4.67
2018-07-19T05:08:19.461Z,5.03
2018-07-19T05:10:48.272Z,3.97
2018-07-19T05:13:16.412Z,4.00
2018-07-19T05:15:44.577Z,4.63
2018-07-19T05:18:13.054Z,4.93
2018-07-19T05:20:41.585Z,4.10
2018-07-19T05:23:10.109Z,4.70
2018-07-19T05:25:38.550Z,4.43
2018-07-19T05:28:07.029Z,4.63
2018-07-19T05:30:35.514Z,5.50
2018-07-19T05:33:04.008Z,5.07
2018-07-19T05:35:32.526Z,4.80
2018-07-19T05:38:00.972Z,4.20
2018-07-19T05:40:29.995Z,4.43
2018-07-19T05:42:58.404Z,3.93
2018-07-19T05:45:26.894Z,4.20
2018-07-19T05:47:55.353Z,4.70
2018-07-19T05:50:23.909Z,5.13
2018-07-19T05:52:52.410Z,4.70
2018-07-19T05:55:20.938Z,3.97
2018-07-19T05:57:49.418Z,3.87
2018-07-19T06:00:17.916Z,5.17
2018-07-19T06:02:46.450Z,4.83
2018-07-19T06:05:15.003Z,4.33
2018-07-19T06:07:43.617Z,5.17
2018-07-19T06:10:12.161Z,4.87
2018-07-19T06:12:40.645Z,4.80
2018-07-19T06:15:09.163Z,5.70
2018-07-19T06:17:37.637Z,5.40
2018-07-19T06:20:07.258Z,4.90
2018-07-19T06:22:36.262Z,5.20
2018-07-19T06:25:04.898Z,4.80
2018-07-19T06:27:33.677Z,5.20
2018-07-19T06:30:02.779Z,4.80
2018-07-19T06:32:32.226Z,5.40
2018-07-19T06:35:00.694Z,4.13
2018-07-19T06:37:29.211Z,4.73
2018-07-19T06:39:57.684Z,4.93
2018-07-19T06:42:26.166Z,5.30
2018-07-19T06:44:54.702Z,5.40
2018-07-19T06:47:23.195Z,5.20
2018-07-19T06:49:51.888Z,4.70
2018-07-19T06:52:20.353Z,5.60
2018-07-19T06:54:48.825Z,4.50
2018-07-19T06:57:17.514Z,4.67
2018-07-19T06:59:46.238Z,5.33
2018-07-19T07:02:14.713Z,4.43
2018-07-19T07:04:43.213Z,4.70
2018-07-19T07:07:11.706Z,5.00
2018-07-19T07:09:40.180Z,5.00
2018-07-19T07:12:08.652Z,5.50
2018-07-19T07:14:37.196Z,4.87
2018-07-19T07:17:05.795Z,5.40
2018-07-19T07:19:34.276Z,5.20
2018-07-19T07:22:02.786Z,5.70
2018-07-19T07:24:31.258Z,5.30
2018-07-19T07:26:59.762Z,5.33
2018-07-19T07:29:28.253Z,5.20
2018-07-19T07:31:56.726Z,5.20
2018-07-19T07:34:25.277Z,5.20
2018-07-19T07:36:53.786Z,5.97
2018-07-19T07:39:22.309Z,5.40
2018-07-19T07:41:50.506Z,5.73
2018-07-19T07:44:19.052Z,6.30
2018-07-19T07:46:47.525Z,5.97
2018-07-19T07:49:15.992Z,6.40
2018-07-19T07:51:44.570Z,6.13
2018-07-19T07:54:13.071Z,6.37
2018-07-19T07:56:41.539Z,6.00
2018-07-19T07:59:10.003Z,6.47
2018-07-19T08:01:38.489Z,6.43
2018-07-19T08:04:07.053Z,5.57
2018-07-19T08:06:35.906Z,6.30
2018-07-19T08:09:06.779Z,6.37
2018-07-19T08:11:35.305Z,6.37
2018-07-19T08:14:03.869Z,5.10
2018-07-19T08:16:32.391Z,6.43
2018-07-19T08:19:00.849Z,5.50
2018-07-19T08:21:29.350Z,5.60
2018-07-19T08:23:58.279Z,5.37
2018-07-19T08:26:26.785Z,5.90
2018-07-19T08:28:55.264Z,5.63
2018-07-19T08:31:23.755Z,6.50
2018-07-19T08:33:52.241Z,6.50
2018-07-19T08:36:20.755Z,5.63
2018-07-19T08:38:49.238Z,6.23
2018-07-19T08:41:17.762Z,5.97
2018-07-19T08:43:46.264Z,6.60
2018-07-19T08:46:14.726Z,5.77
2018-07-19T08:48:43.308Z,5.93
2018-07-19T08:51:11.798Z,5.63
2018-07-19T08:53:40.318Z,5.10
2018-07-19T08:56:08.843Z,5.63
2018-07-19T08:58:37.560Z,4.97
2018-07-19T09:01:06.167Z,5.37
2018-07-19T09:03:34.697Z,5.60
2018-07-19T09:06:03.226Z,5.57
2018-07-19T09:08:31.713Z,5.50
2018-07-19T09:11:00.212Z,5.07
2018-07-19T09:13:28.709Z,5.70
2018-07-19T09:15:57.239Z,5.57
2018-07-19T09:18:25.759Z,6.07
2018-07-19T09:20:54.483Z,5.57
2018-07-19T09:23:22.677Z,5.50
2018-07-19T09:25:51.143Z,4.80
2018-07-19T09:28:19.622Z,4.53
2018-07-19T09:30:48.104Z,6.33
2018-07-19T09:33:16.612Z,4.60
2018-07-19T09:35:45.122Z,4.00
2018-07-19T09:38:13.633Z,4.40
2018-07-19T09:40:42.117Z,4.47
2018-07-19T09:43:10.641Z,4.60
2018-07-19T09:45:39.139Z,4.30
2018-07-19T09:48:07.590Z,4.30
2018-07-19T09:50:36.081Z,3.77
2018-07-19T09:53:04.565Z,3.80
2018-07-19T09:55:33.085Z,4.60
2018-07-19T09:58:01.551Z,4.40
2018-07-19T10:00:35.336Z,5.13
2018-07-19T10:03:03.790Z,4.53
2018-07-19T10:05:32.347Z,5.30
2018-07-19T10:08:00.847Z,5.03
2018-07-19T10:10:29.354Z,4.40
2018-07-19T10:12:57.818Z,4.70
2018-07-19T10:15:26.556Z,4.03
2018-07-19T10:17:55.575Z,4.43
2018-07-19T10:20:24.146Z,4.23
2018-07-19T10:22:53.380Z,4.30
2018-07-19T10:25:21.923Z,4.70
2018-07-19T10:27:50.564Z,4.97
2018-07-19T10:30:19.098Z,4.13
2018-07-19T10:32:47.628Z,4.90
2018-07-19T10:35:16.164Z,4.97
2018-07-19T10:37:44.657Z,4.33
2018-07-19T10:40:13.754Z,4.57
2018-07-19T10:42:42.358Z,5.20
2018-07-19T10:45:10.947Z,4.23
2018-07-19T10:47:39.430Z,5.40
2018-07-19T10:50:07.994Z,4.23
2018-07-19T10:52:36.451Z,5.17
2018-07-19T10:55:05.038Z,5.03
2018-07-19T10:57:33.554Z,4.33
2018-07-19T11:00:02.064Z,3.97
2018-07-19T11:02:30.212Z,4.33
2018-07-19T11:04:59.535Z,4.73
2018-07-19T11:07:28.073Z,5.33
2018-07-19T11:09:56.596Z,4.13
2018-07-19T11:12:25.086Z,4.90
2018-07-19T11:14:53.581Z,4.17
2018-07-19T11:17:22.070Z,3.83
2018-07-19T11:19:50.193Z,4.70
2018-07-19T11:22:18.650Z,5.30
2018-07-19T11:24:47.204Z,4.80
2018-07-19T11:27:15.671Z,4.50
2018-07-19T11:29:44.390Z,5.17
2018-07-19T11:32:12.897Z,5.07
2018-07-19T11:34:41.392Z,4.20
2018-07-19T11:37:09.861Z,4.53
2018-07-19T11:39:38.347Z,4.90
2018-07-19T11:42:06.909Z,4.93
2018-07-19T11:44:35.384Z,5.17
2018-07-19T11:47:03.902Z,4.30
2018-07-19T11:49:32.388Z,4.70
2018-07-19T11:52:00.868Z,4.10
2018-07-19T11:54:29.654Z,5.43
2018-07-19T11:56:58.161Z,4.87
2018-07-19T11:59:26.710Z,4.93
2018-07-19T12:01:55.214Z,4.20
2018-07-19T12:04:23.653Z,4.93
2018-07-19T12:06:52.127Z,4.20
2018-07-19T12:09:20.574Z,4.80
2018-07-19T12:11:49.053Z,4.57
2018-07-19T12:14:17.530Z,4.80
2018-07-19T12:16:45.991Z,4.77
2018-07-19T12:19:14.467Z,4.70
2018-07-19T12:21:43.067Z,4.80
2018-07-19T12:24:12.257Z,5.00
2018-07-19T12:26:41.100Z,4.73
2018-07-19T12:29:09.249Z,4.50
2018-07-19T12:31:37.754Z,4.47
2018-07-19T12:34:06.198Z,4.87
2018-07-19T12:36:34.733Z,5.77
2018-07-19T12:39:03.445Z,4.53
2018-07-19T12:41:32.180Z,4.80
2018-07-19T12:44:00.628Z,4.60
2018-07-19T12:46:29.118Z,4.40
2018-07-19T12:48:57.724Z,5.30
2018-07-19T12:51:26.130Z,5.53
2018-07-19T12:53:54.525Z,4.87
2018-07-19T12:56:22.993Z,4.27
2018-07-19T12:58:52.526Z,4.43
2018-07-19T13:01:20.978Z,5.07
2018-07-19T13:03:49.140Z,4.70
2018-07-19T13:06:17.621Z,4.70
2018-07-19T13:08:46.382Z,4.47
2018-07-19T13:11:15.043Z,4.33
2018-07-19T13:13:43.769Z,4.60
2018-07-19T13:16:12.653Z,4.20
2018-07-19T13:18:41.140Z,4.50
2018-07-19T13:21:09.614Z,4.50
2018-07-19T13:23:38.371Z,5.27
2018-07-19T13:26:06.880Z,5.17
2018-07-19T13:28:35.619Z,4.47
2018-07-19T13:31:04.123Z,4.60
2018-07-19T13:33:32.646Z,5.20
2018-07-19T13:36:01.462Z,4.37
2018-07-19T13:38:29.633Z,4.97
2018-07-19T13:40:58.349Z,4.60
2018-07-19T13:43:26.818Z,4.07
2018-07-19T13:45:55.680Z,4.10
2018-07-19T13:48:24.234Z,5.10
2018-07-19T13:50:52.723Z,4.00
2018-07-19T13:53:34.578Z,4.40
2018-07-19T13:57:04.059Z,4.20
2018-07-19T13:59:32.611Z,4.87
2018-07-19T14:02:01.079Z,4.90
2018-07-19T14:04:29.554Z,4.67
2018-07-19T14:06:58.080Z,5.30
2018-07-19T14:09:26.567Z,4.90
2018-07-19T14:11:55.051Z,4.90
2018-07-19T14:14:23.514Z,5.10
2018-07-19T14:16:51.964Z,4.00
2018-07-19T14:19:20.466Z,5.10
2018-07-19T14:21:49.030Z,4.70
2018-07-19T14:24:17.511Z,4.67
2018-07-19T14:26:46.004Z,4.40
2018-07-19T14:29:14.484Z,4.27
2018-07-19T14:31:42.977Z,4.30
2018-07-19T14:34:11.470Z,4.57
2018-07-19T14:36:40.794Z,4.60
2018-07-19T14:39:11.241Z,4.40
2018-07-19T14:41:39.753Z,4.43
2018-07-19T14:44:08.686Z,4.33
2018-07-19T14:46:37.170Z,5.03
2018-07-19T14:49:05.702Z,4.50
2018-07-19T14:51:34.179Z,4.20
2018-07-19T14:54:02.673Z,4.30
2018-07-19T14:56:31.114Z,4.03
2018-07-19T14:58:59.598Z,4.40
2018-07-19T15:01:28.117Z,4.57
2018-07-19T15:03:56.569Z,4.70
2018-07-19T15:06:25.057Z,4.30
2018-07-19T15:08:53.541Z,4.37
2018-07-19T15:11:21.701Z,4.70
2018-07-19T15:13:50.142Z,4.93
2018-07-19T15:16:18.781Z,4.30
2018-07-19T15:18:47.264Z,5.03
2018-07-19T15:21:15.418Z,4.30
2018-07-19T15:23:44.097Z,5.03
2018-07-19T15:26:12.602Z,4.70
2018-07-19T15:28:41.108Z,4.30
2018-07-19T15:31:09.598Z,4.40
2018-07-19T15:33:42.538Z,4.80
2018-07-19T15:36:11.142Z,4.10
2018-07-19T15:38:39.645Z,4.30
2018-07-19T15:41:08.132Z,3.90
2018-07-19T15:43:36.622Z,4.27
2018-07-19T15:46:05.134Z,5.00
2018-07-19T15:48:33.588Z,4.53
2018-07-19T15:51:02.086Z,3.67
2018-07-19T15:53:30.585Z,4.70
2018-07-19T15:55:59.274Z,4.50
2018-07-19T15:58:27.774Z,4.27
2018-07-19T16:00:56.250Z,4.30
2018-07-19T16:03:24.715Z,4.20
2018-07-19T16:05:53.447Z,4.00
2018-07-19T16:08:21.891Z,4.10
2018-07-19T16:10:50.339Z,5.10
2018-07-19T16:13:18.815Z,4.00
2018-07-19T16:15:47.274Z,4.10
2018-07-19T16:18:15.443Z,4.00
2018-07-19T16:20:43.971Z,4.60
2018-07-19T16:23:12.380Z,3.93
2018-07-19T16:25:40.874Z,4.03
2018-07-19T16:28:09.322Z,4.00
2018-07-19T16:30:37.803Z,4.10
2018-07-19T16:33:06.383Z,4.37
2018-07-19T16:35:34.884Z,5.10
2018-07-19T16:38:03.419Z,4.53
2018-07-19T16:40:31.892Z,4.43
2018-07-19T16:43:00.247Z,4.30
2018-07-19T16:45:28.678Z,4.70
2018-07-19T16:47:57.154Z,4.93
2018-07-19T16:50:25.644Z,4.20
2018-07-19T16:52:54.120Z,4.77
2018-07-19T16:55:22.617Z,4.20
2018-07-19T16:57:51.057Z,4.67
2018-07-19T17:00:19.567Z,3.90
2018-07-19T17:02:48.044Z,4.00
2018-07-19T17:05:16.544Z,4.30
2018-07-19T17:07:45.006Z,4.53
2018-07-19T17:10:13.496Z,3.90
2018-07-19T17:12:41.974Z,4.10
2018-07-19T17:15:10.444Z,4.77
2018-07-19T17:17:38.901Z,4.23
2018-07-19T17:20:07.365Z,4.30
2018-07-19T17:22:36.074Z,4.10
2018-07-19T17:25:04.578Z,4.27
2018-07-19T17:27:33.191Z,4.37
2018-07-19T17:30:01.889Z,3.93
2018-07-19T17:32:30.508Z,4.30
2018-07-19T17:34:58.698Z,4.57
2018-07-19T17:37:27.217Z,3.57
2018-07-19T17:39:56.692Z,3.87
2018-07-19T17:42:25.157Z,4.30
2018-07-19T17:44:53.604Z,3.97
2018-07-19T17:47:24.580Z,4.37
2018-07-19T17:49:53.835Z,3.70
2018-07-19T17:52:22.316Z,4.43
2018-07-19T17:54:50.797Z,3.83
2018-07-19T17:57:19.283Z,4.40
2018-07-19T17:59:47.742Z,4.57
2018-07-19T18:02:16.204Z,5.87
2018-07-19T18:04:44.375Z,5.17
2018-07-19T18:07:12.822Z,4.77
2018-07-19T18:09:41.294Z,4.17
2018-07-19T18:12:10.207Z,4.13
2018-07-19T18:14:38.702Z,4.13
2018-07-19T18:17:07.417Z,4.10
2018-07-19T18:19:35.902Z,4.10
2018-07-19T18:22:04.487Z,4.57
2018-07-19T18:24:32.914Z,5.17
2018-07-19T18:27:01.402Z,4.70
2018-07-19T18:29:29.870Z,5.87
2018-07-19T18:31:58.361Z,7.47
2018-07-19T18:34:26.818Z,6.10
2018-07-19T18:36:55.302Z,6.23
2018-07-19T18:39:23.783Z,4.50
2018-07-19T18:41:52.242Z,5.00
2018-07-19T18:44:20.720Z,4.47
2018-07-19T18:46:49.185Z,5.23
2018-07-19T18:49:17.330Z,4.53
2018-07-19T18:51:45.999Z,3.93
2018-07-19T18:54:14.505Z,4.63
2018-07-19T18:56:43.029Z,4.40
2018-07-19T18:59:15.215Z,4.73
2018-07-19T19:01:43.699Z,3.97
2018-07-19T19:04:13.702Z,4.40
2018-07-19T19:06:42.490Z,4.97
2018-07-19T19:09:11.997Z,4.10
2018-07-19T19:11:40.618Z,4.20
2018-07-19T19:14:09.090Z,4.10
2018-07-19T19:16:37.785Z,4.77
2018-07-19T19:19:06.287Z,3.87
2018-07-19T19:21:34.809Z,4.53
2018-07-19T19:24:03.197Z,4.07
2018-07-19T19:26:31.677Z,4.40
2018-07-19T19:29:00.147Z,4.53
2018-07-19T19:31:28.626Z,4.37
2018-07-19T19:33:57.087Z,4.80
2018-07-19T19:36:25.565Z,5.30
2018-07-19T19:38:53.997Z,4.40
2018-07-19T19:41:29.864Z,4.93
2018-07-19T19:43:58.067Z,4.40
2018-07-19T19:46:26.549Z,3.93
2018-07-19T19:48:55.020Z,4.03
2018-07-19T19:51:23.477Z,4.60
2018-07-19T19:53:51.949Z,3.90
2018-07-19T19:56:20.427Z,5.43
2018-07-19T19:58:48.896Z,4.73
2018-07-19T20:01:17.469Z,4.47
2018-07-19T20:03:45.974Z,4.23
2018-07-19T20:06:14.465Z,4.57
2018-07-19T20:08:42.976Z,4.93
2018-07-19T20:11:11.426Z,4.23
2018-07-19T20:13:39.886Z,4.20
2018-07-19T20:16:08.029Z,4.40
2018-07-19T20:18:36.814Z,4.90
2018-07-19T20:21:05.471Z,4.70
2018-07-19T20:23:34.259Z,4.50
2018-07-19T20:26:02.745Z,4.20
2018-07-19T20:28:31.254Z,4.57
2018-07-19T20:30:59.782Z,4.00
2018-07-19T20:33:27.910Z,4.23
2018-07-19T20:35:56.370Z,5.00
2018-07-19T20:38:25.984Z,4.43
2018-07-19T20:40:54.454Z,4.40
2018-07-19T20:43:22.952Z,4.30
2018-07-19T20:45:52.222Z,5.20
2018-07-19T20:48:21.074Z,4.20
2018-07-19T20:50:49.520Z,4.77
2018-07-19T20:53:18.414Z,4.23
2018-07-19T20:55:46.902Z,4.10
2018-07-19T20:58:15.382Z,4.40
2018-07-19T21:00:44.671Z,4.43
2018-07-19T21:03:13.185Z,4.73
2018-07-19T21:05:41.674Z,4.70
2018-07-19T21:08:10.134Z,5.07
2018-07-19T21:10:38.643Z,4.53
2018-07-19T21:13:08.430Z,4.77
2018-07-19T21:15:36.890Z,5.03
2018-07-19T21:18:05.399Z,7.10
2018-07-19T21:20:33.884Z,5.37
2018-07-19T21:23:02.350Z,4.80
2018-07-19T21:25:30.806Z,5.03
2018-07-19T21:27:59.523Z,5.40
2018-07-19T21:30:27.990Z,4.63
2018-07-19T21:32:56.422Z,5.20
2018-07-19T21:35:25.124Z,5.70
2018-07-19T21:37:53.819Z,4.70
2018-07-19T21:40:22.284Z,4.70
2018-07-19T21:42:50.766Z,5.67
2018-07-19T21:45:19.214Z,4.97
2018-07-19T21:47:47.738Z,4.57
2018-07-19T21:50:15.974Z,5.43
2018-07-19T21:52:44.413Z,5.27
2018-07-19T21:55:13.005Z,5.47
2018-07-19T21:57:41.477Z,5.50
2018-07-19T22:00:10.019Z,5.23
2018-07-19T22:02:38.536Z,5.43
2018-07-19T22:05:06.709Z,5.40
2018-07-19T22:07:35.159Z,5.00
2018-07-19T22:10:03.839Z,4.60
2018-07-19T22:12:32.318Z,5.00
2018-07-19T22:15:00.855Z,5.77
2018-07-19T22:17:29.514Z,5.50
2018-07-19T22:19:58.009Z,5.43
2018-07-19T22:22:26.338Z,5.70
2018-07-19T22:24:54.851Z,5.47
2018-07-19T22:27:23.552Z,6.80
2018-07-19T22:29:51.757Z,5.57
2018-07-19T22:32:20.199Z,5.53
2018-07-19T22:34:48.705Z,5.03
2018-07-19T22:37:17.169Z,5.00
2018-07-19T22:39:45.623Z,5.33
2018-07-19T22:42:14.111Z,5.00
2018-07-19T22:44:42.598Z,5.60
2018-07-19T22:47:11.157Z,5.50
2018-07-19T22:49:39.607Z,5.57
2018-07-19T22:52:08.155Z,5.60
2018-07-19T22:54:36.675Z,5.07
2018-07-19T22:57:05.199Z,5.23
2018-07-19T22:59:33.722Z,5.33
2018-07-19T23:02:02.258Z,6.10
2018-07-19T23:04:30.686Z,6.20
2018-07-19T23:06:58.853Z,5.93
2018-07-19T23:09:27.292Z,5.63
2018-07-19T23:11:55.813Z,5.60
2018-07-19T23:14:24.278Z,5.30
2018-07-19T23:16:52.766Z,5.50
2018-07-19T23:19:21.258Z,5.43
2018-07-19T23:21:49.723Z,5.10
2018-07-19T23:24:18.417Z,5.03
2018-07-19T23:26:46.917Z,5.87
2018-07-19T23:29:15.622Z,5.13
2018-07-19T23:31:44.254Z,6.70
2018-07-19T23:34:12.755Z,5.90
2018-07-19T23:36:46.824Z,5.60
2018-07-19T23:41:22.666Z,5.97
2018-07-19T23:43:54.654Z,5.37
2018-07-19T23:46:26.134Z,6.03
2018-07-19T23:48:56.016Z,5.50
2018-07-19T23:51:24.477Z,5.93
2018-07-19T23:53:52.621Z,5.37
2018-07-19T23:56:21.109Z,5.73
2018-07-19T23:58:49.577Z,5.70
